Terminal Aerodrome Forecast
Issued by NWS

Home | Current Version | Previous Version | Text Only | Print | Product List | Glossary On
Versions: 1 2 3 4 5 6 7 8 9 10 11 12 13 14 15 16 17 18 19 20
000
FTUS46 KSEW 311720
TAFHQM
TAF
KHQM 311720Z 3118/0118 19015KT 5SM BR SCT020 OVC050
      TEMPO 3118/3121 3SM -RA BR BKN020 OVC040
     FM312100 21015KT 3SM -RA BR BKN015 OVC030
     FM010400 18012KT P6SM SCT020 BKN040 OVC060
     FM010900 18012KT 4SM -RA BKN015 OVC030=

USA.gov is the U.S. government's official web portal to all federal, state and local government web resources and services.